Thunder radar more information blitzortung!


Radar de pluja more information rain snow radar


Visita la nostra xarxa de llocs de meteo:

Template documentation
and downloads

And another site



No particular awareness of the weather is required.    There are no Weather-warnings

Pagina Historial Weather Underground text

Diari Resum May 3, 2017 Unitats:  Mètric    Imperial   Tant
« Previous Dia
SegĂźent Dia »
Diari Setmana Mensual Anual Personalitzada
  Maxima: Minima: Media:
Temperatura: -17.8 °C -11.7 °C -10.1 °C
Punt de rosada: -17.8 °C -13.4 °C -12 °C
Humitat: Humidity % 64 % 79 %
Wind Speed: 0 km/h 0 km/h 8.5 km/h
RĂ fegues de vent: 0 km/h - -
Vent:- - East
Pression baro: 0 hPa 34395 hPa -
Precipitacions: 160.02 mm    
Historical Graphs
 
 
Dades de taula per May 3, 2017
Temps Temperatura Punt de rosada Pression baro Vent Wind Speed RĂ fegues de vent Humitat Rainfall Rate (Hourly)
-17.8 °C -17.8 °C 0 hPa Calm     Humidity % 0 mm
11:10 -9.6 °C -13.2 °C 34496.6 hPa East 2.6 km/h 7.7 km/h 65 % 0 mm
11:11 -9.5 °C -13.1 °C 34496.6 hPa NE 6 km/h 6.3 km/h 65 % 0 mm
11:12 -9.5 °C -13.1 °C 34496.6 hPa ESE 6 km/h 6 km/h 65 % 0 mm
11:13 -9.6 °C -13.2 °C 34533.8 hPa ENE 6 km/h 6.3 km/h 65 % 0 mm
11:18 -9.6 °C -13.4 °C 34533.8 hPa ESE 11.9 km/h 11.9 km/h 64 % 0 mm
11:23 -9.6 °C -13.2 °C 34533.8 hPa SE 9 km/h 9.3 km/h 65 % 0 mm
11:28 -9.6 °C -13.2 °C 34496.6 hPa ESE 6 km/h 6.3 km/h 65 % 0 mm
11:33 -9.6 °C -13.2 °C 34496.6 hPa SE 6 km/h 6 km/h 65 % 0 mm
11:38 -9.4 °C -13.1 °C 34496.6 hPa NE 9 km/h 9 km/h 65 % 0 mm
11:43 -9.4 °C -13.1 °C 34496.6 hPa SSW 9 km/h 9 km/h 65 % 0 mm
11:48 -9.1 °C -12.6 °C 34496.6 hPa ESE 9.8 km/h 9.8 km/h 66 % 0 mm
11:53 -9.2 °C -12.8 °C 34496.6 hPa SE 15 km/h 15 km/h 65 % 0 mm
11:58 -9.2 °C -12.9 °C 34496.6 hPa SE 9 km/h 9 km/h 65 % 0 mm
12:03 -9.1 °C -12.7 °C 34496.6 hPa ENE 17.9 km/h 17.9 km/h 65 % 0 mm
12:08 -9.1 °C -12.7 °C 34496.6 hPa ENE 9 km/h 9 km/h 65 % 0 mm
12:13 -9.1 °C -12.7 °C 34496.6 hPa NE 11.9 km/h 11.9 km/h 65 % 0 mm
12:18 -9.1 °C -12.9 °C 34496.6 hPa NE 9 km/h 9 km/h 64 % 0 mm
12:20 -9.1 °C -12.8 °C 34496.6 hPa ESE 17.9 km/h 17.9 km/h 64 % 0 mm
12:25 -9.1 °C -12.8 °C 34496.6 hPa East 11.9 km/h 11.9 km/h 64 % 0 mm
12:30 -9.1 °C -12.8 °C 34496.6 hPa NNE 11.9 km/h 11.9 km/h 64 % 0 mm
12:35 -9 °C -12.7 °C 34496.6 hPa East 9 km/h 9 km/h 65 % 0 mm
12:40 -8.9 °C -12.7 °C 34496.6 hPa NNE 11.9 km/h 11.9 km/h 64 % 0 mm
12:45 -8.9 °C -12.7 °C 34462.7 hPa ENE 9 km/h 9 km/h 64 % 0 mm
12:50 -8.9 °C -12.6 °C 34462.7 hPa NE 11.9 km/h 11.9 km/h 65 % 0 mm
12:55 -9 °C -12.7 °C 34462.7 hPa SE 6.8 km/h 7.6 km/h 65 % 0 mm
13:00 -9 °C -12.7 °C 34496.6 hPa SSE 15 km/h 15 km/h 65 % 0 mm
13:05 -9.1 °C -12.7 °C 34496.6 hPa East 11.9 km/h 11.9 km/h 65 % 0 mm
13:10 -9.1 °C -12.7 °C 34496.6 hPa ENE 11.9 km/h 11.9 km/h 65 % 0 mm
13:15 -9.1 °C -12.6 °C 34496.6 hPa East 15 km/h 15 km/h 66 % 0 mm
13:20 -9.2 °C -12.6 °C 34496.6 hPa ESE 15 km/h 15 km/h 67 % 0 mm
13:25 -9.2 °C -12.5 °C 34496.6 hPa SE 11.9 km/h 11.9 km/h 68 % 0 mm
13:30 -9.3 °C -12.6 °C 34496.6 hPa ENE 9 km/h 9 km/h 68 % 0 mm
13:35 -9.3 °C -12.4 °C 34496.6 hPa East 11.9 km/h 11.9 km/h 69 % 0 mm
13:40 -9.3 °C -12.4 °C 34496.6 hPa ESE 11.9 km/h 11.9 km/h 69 % 0 mm
13:45 -9.4 °C -12.4 °C 34496.6 hPa East 10.3 km/h 10.3 km/h 70 % 0 mm
13:50 -9.4 °C -12.3 °C 34496.6 hPa East 9 km/h 9 km/h 71 % 0 mm
13:55 -9.4 °C -12.2 °C 34496.6 hPa ENE 9 km/h 9 km/h 72 % 0 mm
14:00 -9.5 °C -12.3 °C 34496.6 hPa ENE 11.9 km/h 11.9 km/h 72 % 0 mm
14:05 -9.6 °C -12.2 °C 34496.6 hPa ENE 9 km/h 9 km/h 74 % 0 mm
14:10 -9.7 °C -12.3 °C 34496.6 hPa ENE 11.9 km/h 11.9 km/h 74 % 0 mm
14:15 -9.7 °C -11.9 °C 34496.6 hPa ENE 6 km/h 6 km/h 77 % 0 mm
14:20 -9.8 °C -12.1 °C 34496.6 hPa NNE 9 km/h 9 km/h 77 % 0 mm
14:25 -9.9 °C -12 °C 34496.6 hPa NNE 9 km/h 9 km/h 78 % 0 mm
14:30 -10 °C -12.1 °C 34496.6 hPa ENE 11.9 km/h 11.9 km/h 78 % 0 mm
14:35 -10.1 °C -12.2 °C 34496.6 hPa NNW 9 km/h 9 km/h 78 % 25.4 mm
14:40 -10.1 °C -12.2 °C 34496.6 hPa North 9 km/h 9 km/h 78 % 76.2 mm
14:45 -10.3 °C -12.3 °C 34496.6 hPa NE 15 km/h 15 km/h 79 % 109.22 mm
14:50 -10.3 °C -12.2 °C 34496.6 hPa ENE 11.9 km/h 11.9 km/h 80 % 109.22 mm
14:55 -10.3 °C -12.1 °C 34496.6 hPa NNE 6 km/h 6 km/h 81 % 129.54 mm
15:00 -10.3 °C -12.1 °C 34496.6 hPa ENE 9.3 km/h 9.3 km/h 81 % 129.54 mm
15:05 -10.4 °C -12.2 °C 34496.6 hPa ENE 9 km/h 9 km/h 81 % 129.54 mm
15:10 -10.4 °C -12.1 °C 34496.6 hPa ENE 11.9 km/h 11.9 km/h 82 % 129.54 mm
15:15 -10.5 °C -12.2 °C 34496.6 hPa ENE 11.9 km/h 11.9 km/h 82 % 129.54 mm
15:20 -10.4 °C -12 °C 34496.6 hPa ENE 6.8 km/h 6.8 km/h 83 % 160.02 mm
15:25 -10.4 °C -11.9 °C 34496.6 hPa ENE 9 km/h 9 km/h 83 % 160.02 mm
15:30 -10.4 °C -12 °C 34496.6 hPa East 9 km/h 9 km/h 83 % 160.02 mm
15:35 -10.4 °C -11.8 °C 34496.6 hPa ESE 15.3 km/h 15.3 km/h 84 % 134.62 mm
15:40 -10.4 °C -11.8 °C 34496.6 hPa ESE 20.9 km/h 20.9 km/h 84 % 83.82 mm
15:45 -10.3 °C -11.8 °C 34428.8 hPa ESE 9 km/h 9 km/h 84 % 50.8 mm
15:50 -10.3 °C -11.7 °C 34428.8 hPa ESE 11.9 km/h 11.9 km/h 85 % 50.8 mm
15:55 -10.4 °C -11.8 °C 34428.8 hPa SE 15 km/h 15 km/h 84 % 33.02 mm
16:00 -10.4 °C -11.8 °C 34462.7 hPa ESE 20.9 km/h 20.9 km/h 84 % 33.02 mm
16:05 -10.2 °C -11.7 °C 34462.7 hPa East 15 km/h 15 km/h 84 % 33.02 mm
16:10 -10.2 °C -11.6 °C 34462.7 hPa ENE 9 km/h 9 km/h 85 % 33.02 mm
16:15 -10.1 °C -11.5 °C 34462.7 hPa East 15.3 km/h 15.3 km/h 85 % 33.02 mm
16:20 -10.2 °C -11.6 °C 34462.7 hPa NNE 11.9 km/h 11.9 km/h 84 % 0 mm
16:25 -10.1 °C -11.6 °C 34462.7 hPa ENE 9 km/h 9 km/h 84 % 0 mm
16:30 -10 °C -11.4 °C 34462.7 hPa NNE 15 km/h 15 km/h 85 % 0 mm
16:35 -10 °C -11.5 °C 34462.7 hPa NNE 9.8 km/h 9.8 km/h 84 % 0 mm
16:40 -10.1 °C -11.6 °C 34462.7 hPa NNE 15 km/h 15 km/h 84 % 0 mm
16:45 -10 °C -11.4 °C 34462.7 hPa NNE 11.9 km/h 11.9 km/h 85 % 0 mm
16:50 -9.9 °C -11.3 °C 34462.7 hPa NNE 6 km/h 6 km/h 85 % 0 mm
16:55 -10 °C -11.5 °C 34462.7 hPa NNE 9 km/h 9 km/h 84 % 0 mm
17:00 -10 °C -11.4 °C 34428.8 hPa East 11.9 km/h 11.9 km/h 85 % 0 mm
17:01 -10 °C -11.4 °C 34428.8 hPa East 11.9 km/h 11.9 km/h 85 % 0 mm
17:06 -9.9 °C -11.3 °C 34428.8 hPa East 9 km/h 9 km/h 85 % 0 mm
17:11 -9.9 °C -11.4 °C 34428.8 hPa ENE 9 km/h 9 km/h 84 % 0 mm
17:16 -9.9 °C -11.3 °C 34462.7 hPa ENE 11.9 km/h 11.9 km/h 85 % 0 mm
17:21 -9.8 °C -11.3 °C 34462.7 hPa SSE 9 km/h 9 km/h 84 % 0 mm
17:26 -9.7 °C -11.2 °C 34462.7 hPa ESE 5.6 km/h 5.6 km/h 84 % 0 mm
17:31 -9.7 °C -11.2 °C 34462.7 hPa ENE 9.3 km/h 9.3 km/h 84 % 0 mm
17:36 -9.6 °C -11.1 °C 34462.7 hPa ESE 6 km/h 6 km/h 84 % 0 mm
17:41 -9.4 °C -10.8 °C 34462.7 hPa ESE 8 km/h 8 km/h 85 % 0 mm
17:46 -9.3 °C -10.8 °C 34462.7 hPa ESE 9 km/h 9 km/h 84 % 0 mm
17:51 -9.1 °C -10.7 °C 34462.7 hPa SSE 6 km/h 6 km/h 83 % 0 mm
17:56 -8.9 °C -10.6 °C 34462.7 hPa South 11.9 km/h 11.9 km/h 83 % 0 mm
18:01 -8.8 °C -10.7 °C 34428.8 hPa South 6 km/h 6 km/h 81 % 0 mm
18:06 -8.9 °C -10.7 °C 34428.8 hPa SSE 9 km/h 9 km/h 81 % 0 mm
18:11 -8.9 °C -10.7 °C 34428.8 hPa SSW 9 km/h 9 km/h 81 % 0 mm
18:16 -8.9 °C -10.7 °C 34428.8 hPa ESE 9 km/h 9 km/h 81 % 0 mm
18:18 -9 °C -10.8 °C 34428.8 hPa ESE 11.9 km/h 11.9 km/h 81 % 0 mm
18:21 -9 °C -10.8 °C 34428.8 hPa East 6 km/h 6 km/h 81 % 0 mm
18:26 -8.8 °C -10.7 °C 34428.8 hPa SSE 8 km/h 8 km/h 81 % 0 mm
18:31 -8.8 °C -10.7 °C 34428.8 hPa SSE 9 km/h 9 km/h 80 % 0 mm
18:36 -9 °C -10.9 °C 34428.8 hPa ENE 15 km/h 15 km/h 80 % 0 mm
18:41 -9.1 °C -10.9 °C 34428.8 hPa ESE 11.9 km/h 11.9 km/h 81 % 0 mm
18:46 -9.2 °C -11 °C 34428.8 hPa ESE 15 km/h 15 km/h 81 % 0 mm
18:51 -9.3 °C -11 °C 34428.8 hPa ESE 9.8 km/h 9.8 km/h 82 % 0 mm
18:56 -9.3 °C -11 °C 34428.8 hPa ESE 12.2 km/h 12.2 km/h 82 % 0 mm
19:01 -9.3 °C -11 °C 34395 hPa NE 11.9 km/h 11.9 km/h 82 % 0 mm
19:06 -9.3 °C -11 °C 34395 hPa ESE 15 km/h 15 km/h 82 % 0 mm
19:11 -9.3 °C -11.1 °C 34395 hPa ESE 11.9 km/h 11.9 km/h 81 % 0 mm
19:16 -9.2 °C -11 °C 34395 hPa ENE 11.9 km/h 11.9 km/h 81 % 0 mm
19:20 -11 °C -12.3 °C 34462.7 hPa Calm     86 % 0 mm
19:21 -9.3 °C -11.1 °C 34395 hPa ESE 19.2 km/h 19.2 km/h 81 % 0 mm
19:26 -9.3 °C -11 °C 34395 hPa ESE 11.9 km/h 11.9 km/h 82 % 0 mm
19:30 -11 °C -12.2 °C 34462.7 hPa Calm   2.6 km/h 87 % 0 mm
19:31 -9.3 °C -11 °C 34395 hPa NNE 11.9 km/h 11.9 km/h 82 % 0 mm
19:36 -9.4 °C -11.2 °C 34395 hPa ESE 15 km/h 15 km/h 81 % 0 mm
19:40 -11.1 °C -12.2 °C 34462.7 hPa NE 2.6 km/h 5.1 km/h 87 % 0 mm
19:41 -9.3 °C -11.2 °C 34395 hPa SSE 8 km/h 8 km/h 81 % 0 mm
19:46 -9.3 °C -11.2 °C 34395 hPa ENE 14.5 km/h 14.5 km/h 80 % 0 mm
19:50 -11.1 °C -12.3 °C 34462.7 hPa Calm     87 % 0 mm
19:51 -9.3 °C -11.2 °C 34395 hPa NE 15 km/h 15 km/h 80 % 0 mm
19:56 -9.3 °C -11.3 °C 34395 hPa SE 15.6 km/h 15.6 km/h 79 % 0 mm
20:00 -11.2 °C -12.3 °C 34462.7 hPa Calm     87 % 0 mm
20:01 -9.4 °C -11.4 °C 34395 hPa ENE 11.9 km/h 11.9 km/h 79 % 0 mm
20:06 -9.5 °C -11.5 °C 34395 hPa ENE 20.9 km/h 20.9 km/h 79 % 0 mm
20:10 -11.2 °C -12.4 °C 34462.7 hPa Calm   2.6 km/h 87 % 0 mm
20:11 -9.6 °C -11.4 °C 34395 hPa ESE 23.8 km/h 23.8 km/h 80 % 0 mm
20:16 -9.6 °C -11.5 °C 34395 hPa NE 23.8 km/h 23.8 km/h 80 % 0 mm
20:20 -11.2 °C -12.2 °C 34462.7 hPa Calm     88 % 0 mm
20:21 -9.7 °C -11.4 °C 34395 hPa ENE 17.9 km/h 17.9 km/h 81 % 0 mm
20:26 -9.7 °C -11.3 °C 34395 hPa ENE 17.9 km/h 17.9 km/h 82 % 0 mm
20:29 -9.7 °C -11.4 °C 34428.8 hPa ENE 9 km/h 9 km/h 82 % 0 mm
20:30 -11.2 °C -12.3 °C 34462.7 hPa Calm     88 % 0 mm
20:31 -9.7 °C -11.5 °C 34428.8 hPa ESE 15 km/h 15 km/h 81 % 0 mm
20:36 -9.8 °C -11.4 °C 34428.8 hPa ENE 10.3 km/h 10.3 km/h 82 % 0 mm
20:40 -11.3 °C -12.3 °C 34462.7 hPa Calm     88 % 0 mm
20:41 -9.8 °C -11.5 °C 34428.8 hPa East 15 km/h 15 km/h 82 % 0 mm
20:46 -9.8 °C -11.5 °C 34428.8 hPa ESE 11.1 km/h 11.1 km/h 82 % 0 mm
20:50 -11.3 °C -12.4 °C 34462.7 hPa Calm     88 % 0 mm
20:51 -9.9 °C -11.6 °C 34428.8 hPa NNE 11.9 km/h 11.9 km/h 82 % 0 mm
20:56 -9.9 °C -11.6 °C 34428.8 hPa SE 15 km/h 15 km/h 82 % 0 mm
21:00 -11.3 °C -12.4 °C 34462.7 hPa Calm     88 % 0 mm
21:01 -9.9 °C -11.6 °C 34428.8 hPa ESE 9.3 km/h 9.3 km/h 82 % 0 mm
21:06 -10 °C -11.7 °C 34428.8 hPa ESE 11.9 km/h 11.9 km/h 82 % 0 mm
21:10 -11.4 °C -12.5 °C 34462.7 hPa Calm     88 % 0 mm
21:11 -10.1 °C -11.7 °C 34428.8 hPa ESE 11.9 km/h 11.9 km/h 82 % 0 mm
21:16 -10.1 °C -11.8 °C 34428.8 hPa ESE 9 km/h 9 km/h 82 % 0 mm
21:20 -11.4 °C -12.4 °C 34462.7 hPa Calm     88 % 0 mm
21:21 -10.2 °C -11.8 °C 34428.8 hPa ENE 9 km/h 9 km/h 82 % 0 mm
21:26 -10.2 °C -11.9 °C 34428.8 hPa ENE 11.9 km/h 11.9 km/h 82 % 0 mm
21:30 -11.4 °C -12.4 °C 34462.7 hPa Calm     89 % 0 mm
21:31 -10.3 °C -11.9 °C 34428.8 hPa NE 6 km/h 6 km/h 82 % 0 mm
21:36 -10.3 °C -12 °C 34428.8 hPa NE 6 km/h 6 km/h 82 % 0 mm
21:40 -11.4 °C -12.4 °C 34428.8 hPa Calm     89 % 0 mm
21:41 -10.3 °C -12 °C 34428.8 hPa ESE 9 km/h 9 km/h 82 % 0 mm
21:46 -10.4 °C -12.1 °C 34428.8 hPa ENE 6 km/h 6 km/h 82 % 0 mm
21:49 -10.4 °C -11.9 °C 34428.8 hPa ESE 9 km/h 9 km/h 83 % 0 mm
21:50 -10.4 °C -11.9 °C 34428.8 hPa ENE 3.7 km/h 3.7 km/h 83 % 0 mm
21:52 -10.4 °C -12.1 °C 34428.8 hPa East 6 km/h 6 km/h 82 % 0 mm
21:57 -10.4 °C -12 °C 34428.8 hPa ENE 11.9 km/h 11.9 km/h 83 % 0 mm
22:00 -11.4 °C -12.4 °C 34428.8 hPa Calm     89 % 0 mm
22:02 -10.4 °C -12 °C 34462.7 hPa SE 11.9 km/h 11.9 km/h 83 % 0 mm
22:07 -10.5 °C -12.1 °C 34462.7 hPa ENE 9 km/h 9 km/h 83 % 0 mm
22:10 -11.4 °C -12.4 °C 34428.8 hPa Calm     89 % 0 mm
22:12 -10.5 °C -12.1 °C 34462.7 hPa ESE 9 km/h 9 km/h 83 % 0 mm
22:17 -10.6 °C -12.1 °C 34462.7 hPa East 8.5 km/h 8.5 km/h 83 % 0 mm
22:20 -11.5 °C -12.4 °C 34395 hPa Calm     89 % 0 mm
22:22 -10.6 °C -12.2 °C 34462.7 hPa ENE 5.6 km/h   83 % 0 mm
22:27 -10.7 °C -12.1 °C 34462.7 hPa Calm     84 % 0 mm
22:30 -11.5 °C -12.4 °C 34395 hPa Calm     90 % 0 mm
22:32 -10.7 °C -12.1 °C 34462.7 hPa ENE 3.7 km/h   84 % 0 mm
22:37 -10.7 °C -12.2 °C 34462.7 hPa East 6 km/h 6 km/h 84 % 0 mm
22:40 -11.5 °C -12.4 °C 34395 hPa Calm     90 % 0 mm
22:42 -10.7 °C -12.2 °C 34462.7 hPa East 2.3 km/h   84 % 0 mm
22:47 -10.8 °C -12.3 °C 34462.7 hPa East 3.1 km/h 3.1 km/h 84 % 0 mm
22:50 -11.5 °C -12.4 °C 34395 hPa Calm   2.6 km/h 90 % 0 mm
22:52 -10.8 °C -12.3 °C 34462.7 hPa Calm     84 % 0 mm
22:57 -10.8 °C -12.3 °C 34462.7 hPa NNE 6 km/h 6 km/h 84 % 0 mm
23:00 -11.6 °C -12.4 °C 34395 hPa Calm     90 % 0 mm
23:02 -10.8 °C -12.3 °C 34462.7 hPa Calm     84 % 0 mm
23:07 -10.8 °C -12.3 °C 34462.7 hPa Calm     84 % 0 mm
23:12 -10.9 °C -12.3 °C 34462.7 hPa Calm     84 % 0 mm
23:17 -10.9 °C -12.3 °C 34462.7 hPa Calm     84 % 0 mm
23:20 -11.7 °C -12.6 °C 34395 hPa Calm   5.1 km/h 89 % 0 mm
23:22 -10.9 °C -12.3 °C 34462.7 hPa Calm     85 % 0 mm
23:27 -10.9 °C -12.3 °C 34462.7 hPa NNW 3.1 km/h   85 % 0 mm
23:30 -11.7 °C -12.6 °C 34395 hPa SW 2.6 km/h 5.1 km/h 89 % 0 mm
23:32 -10.9 °C -12.3 °C 34462.7 hPa Calm     85 % 0 mm
23:37 -10.9 °C -12.4 °C 34462.7 hPa Calm     84 % 0 mm
23:40 -11.6 °C -12.5 °C 34395 hPa Calm   2.6 km/h 90 % 0 mm
23:42 -10.9 °C -12.3 °C 34462.7 hPa Calm     85 % 0 mm
23:47 -10.9 °C -12.3 °C 34462.7 hPa NE 6 km/h 6 km/h 85 % 0 mm
23:50 -11.6 °C -12.5 °C 34395 hPa Calm     90 % 0 mm
23:52 -10.9 °C -12.2 °C 34462.7 hPa Calm     86 % 0 mm
23:57 -10.9 °C -12.2 °C 34462.7 hPa NNE 2.3 km/h   86 % 0 mm
Meteo Sesrovires
Elogis d' Weather Underground - 1.5 mb

Guio original per  Jim McMurry - jmcmurry@mwt.net Adaptat per a la plantilla per  Wim van der Kuil - Leuven-Template.eu

Trobareu la nostra informacio del temps tambe a:

Weather Underground

AWEKAS